Newell, Pennsylvania
Current Conditions -  °F | °C
As of 3:53 PM on Friday 19 Dec 2014 (Local Time) from KAGC Reporting Station
Overcast Overcast  
Wind Chill: 22°   Ceiling: 3200
Heat Index: 30°   Visibility: 10mi
Dew Point: 20°   Wind: 8mph
Humidity: 66%   Direction: 290°WNW
Pressure: 30.2"   Gusts: NA
Location:  40.08°N, 79.9°W
Report Text: KAGC 192053Z 29007KT 10SM OVC032 M01/M07 A3020 RMK AO2 SLP245 T10111067 53007
Loading
Personal Weather Stations






























Interactive Weather Map New forecast layout! Learn more

10-Day Weather Forecast

Advertisements
Track Severe Weather on mobile